sensor_id;sensor_type;location;lat;lon;timestamp;pressure;altitude;pressure_sealevel;temperature;humidity
70488;BME280;57976;48.174;16.370;2023-05-12T00:00:40;99149.70;;;13.76;82.64
70488;BME280;57976;48.174;16.370;2023-05-12T00:02:45;99148.24;;;13.78;82.53
70488;BME280;57976;48.174;16.370;2023-05-12T00:04:49;99148.30;;;13.77;82.72
70488;BME280;57976;48.174;16.370;2023-05-12T00:06:54;99149.75;;;13.74;83.24
70488;BME280;57976;48.174;16.370;2023-05-12T00:08:59;99154.42;;;13.65;83.77
70488;BME280;57976;48.174;16.370;2023-05-12T00:11:07;99152.52;;;13.58;83.52
70488;BME280;57976;48.174;16.370;2023-05-12T00:13:11;99154.04;;;13.50;83.39
70488;BME280;57976;48.174;16.370;2023-05-12T00:15:16;99153.03;;;13.44;84.01
70488;BME280;57976;48.174;16.370;2023-05-12T00:17:21;99158.38;;;13.41;85.34
70488;BME280;57976;48.174;16.370;2023-05-12T00:19:26;99156.38;;;13.39;84.71
70488;BME280;57976;48.174;16.370;2023-05-12T00:21:30;99158.06;;;13.37;84.55
70488;BME280;57976;48.174;16.370;2023-05-12T00:23:35;99155.50;;;13.33;84.63
70488;BME280;57976;48.174;16.370;2023-05-12T00:25:40;99157.45;;;13.28;84.84
70488;BME280;57976;48.174;16.370;2023-05-12T00:27:45;99156.06;;;13.22;85.69
70488;BME280;57976;48.174;16.370;2023-05-12T00:29:49;99153.14;;;13.19;86.34
70488;BME280;57976;48.174;16.370;2023-05-12T00:31:55;99153.47;;;13.16;86.17
70488;BME280;57976;48.174;16.370;2023-05-12T00:34:00;99150.81;;;13.10;88.26
70488;BME280;57976;48.174;16.370;2023-05-12T00:36:06;99150.06;;;13.07;87.27
70488;BME280;57976;48.174;16.370;2023-05-12T00:38:11;99149.53;;;13.05;87.26
70488;BME280;57976;48.174;16.370;2023-05-12T00:40:16;99146.73;;;13.02;87.66
70488;BME280;57976;48.174;16.370;2023-05-12T00:42:21;99150.39;;;12.99;87.87
70488;BME280;57976;48.174;16.370;2023-05-12T00:44:26;99150.44;;;12.98;87.53
70488;BME280;57976;48.174;16.370;2023-05-12T00:46:30;99152.20;;;12.99;87.52
70488;BME280;57976;48.174;16.370;2023-05-12T00:48:36;99154.55;;;12.99;87.59
70488;BME280;57976;48.174;16.370;2023-05-12T00:50:41;99157.05;;;13.00;87.66
70488;BME280;57976;48.174;16.370;2023-05-12T00:52:46;99154.84;;;13.04;87.75
70488;BME280;57976;48.174;16.370;2023-05-12T00:54:51;99157.27;;;13.08;87.94
70488;BME280;57976;48.174;16.370;2023-05-12T00:56:57;99160.00;;;13.13;87.74
70488;BME280;57976;48.174;16.370;2023-05-12T00:59:02;99155.30;;;13.17;87.68
70488;BME280;57976;48.174;16.370;2023-05-12T01:01:07;99157.23;;;13.21;87.63
70488;BME280;57976;48.174;16.370;2023-05-12T01:03:12;99156.26;;;13.20;87.76
70488;BME280;57976;48.174;16.370;2023-05-12T01:05:18;99159.18;;;13.19;87.75
70488;BME280;57976;48.174;16.370;2023-05-12T01:07:23;99160.72;;;13.19;87.70
70488;BME280;57976;48.174;16.370;2023-05-12T01:09:29;99162.20;;;13.18;88.05
70488;BME280;57976;48.174;16.370;2023-05-12T01:11:34;99159.20;;;13.15;87.95
70488;BME280;57976;48.174;16.370;2023-05-12T01:13:39;99160.21;;;13.13;88.65
70488;BME280;57976;48.174;16.370;2023-05-12T01:15:46;99161.00;;;13.07;89.34
70488;BME280;57976;48.174;16.370;2023-05-12T01:17:54;99166.55;;;13.04;90.30
70488;BME280;57976;48.174;16.370;2023-05-12T01:20:02;99165.17;;;13.03;90.46
70488;BME280;57976;48.174;16.370;2023-05-12T01:22:09;99169.89;;;13.06;91.21
70488;BME280;57976;48.174;16.370;2023-05-12T01:24:16;99167.34;;;13.07;91.48
70488;BME280;57976;48.174;16.370;2023-05-12T01:26:23;99165.69;;;13.07;91.74
70488;BME280;57976;48.174;16.370;2023-05-12T01:28:28;99170.69;;;13.09;91.92
70488;BME280;57976;48.174;16.370;2023-05-12T01:30:34;99172.19;;;13.08;92.56
70488;BME280;57976;48.174;16.370;2023-05-12T01:32:40;99170.14;;;13.06;92.81
70488;BME280;57976;48.174;16.370;2023-05-12T01:34:45;99169.59;;;13.01;92.54
70488;BME280;57976;48.174;16.370;2023-05-12T01:36:51;99172.26;;;12.94;92.91
70488;BME280;57976;48.174;16.370;2023-05-12T01:38:56;99173.65;;;12.90;93.51
70488;BME280;57976;48.174;16.370;2023-05-12T01:41:00;99171.45;;;12.87;94.38
70488;BME280;57976;48.174;16.370;2023-05-12T01:43:05;99172.27;;;12.83;95.81
70488;BME280;57976;48.174;16.370;2023-05-12T01:45:13;99172.32;;;12.76;95.27
70488;BME280;57976;48.174;16.370;2023-05-12T01:47:18;99173.73;;;12.70;98.03
70488;BME280;57976;48.174;16.370;2023-05-12T01:49:29;99171.52;;;12.63;97.83
70488;BME280;57976;48.174;16.370;2023-05-12T01:51:34;99169.61;;;12.52;99.35
70488;BME280;57976;48.174;16.370;2023-05-12T01:53:39;99168.36;;;12.43;98.39
70488;BME280;57976;48.174;16.370;2023-05-12T01:55:44;99167.98;;;12.36;97.97
70488;BME280;57976;48.174;16.370;2023-05-12T01:57:49;99168.09;;;12.30;98.46
70488;BME280;57976;48.174;16.370;2023-05-12T01:59:53;99173.45;;;12.24;98.21
70488;BME280;57976;48.174;16.370;2023-05-12T02:01:58;99170.67;;;12.19;98.42
70488;BME280;57976;48.174;16.370;2023-05-12T02:04:06;99171.06;;;12.15;97.90
70488;BME280;57976;48.174;16.370;2023-05-12T02:06:12;99167.79;;;12.13;99.08
70488;BME280;57976;48.174;16.370;2023-05-12T02:08:16;99169.70;;;12.12;99.14
70488;BME280;57976;48.174;16.370;2023-05-12T02:10:21;99171.22;;;12.12;100.00
70488;BME280;57976;48.174;16.370;2023-05-12T02:12:26;99173.22;;;12.11;99.85
70488;BME280;57976;48.174;16.370;2023-05-12T02:14:31;99171.52;;;12.09;100.00
70488;BME280;57976;48.174;16.370;2023-05-12T02:16:35;99173.06;;;12.11;99.94
70488;BME280;57976;48.174;16.370;2023-05-12T02:18:40;99177.66;;;12.12;100.00
70488;BME280;57976;48.174;16.370;2023-05-12T02:20:45;99180.52;;;12.13;100.00
70488;BME280;57976;48.174;16.370;2023-05-12T02:22:50;99180.86;;;12.12;100.00
70488;BME280;57976;48.174;16.370;2023-05-12T02:24:55;99178.95;;;12.09;100.00
70488;BME280;57976;48.174;16.370;2023-05-12T02:27:00;99175.84;;;12.05;100.00
70488;BME280;57976;48.174;16.370;2023-05-12T02:29:06;99177.39;;;12.02;100.00
70488;BME280;57976;48.174;16.370;2023-05-12T02:31:11;99178.88;;;12.00;100.00
70488;BME280;57976;48.174;16.370;2023-05-12T02:33:17;99181.19;;;11.99;100.00
70488;BME280;57976;48.174;16.370;2023-05-12T02:35:22;99182.27;;;11.99;100.00
70488;BME280;57976;48.174;16.370;2023-05-12T02:37:27;99179.30;;;12.00;100.00
70488;BME280;57976;48.174;16.370;2023-05-12T02:39:31;99177.81;;;11.97;100.00
70488;BME280;57976;48.174;16.370;2023-05-12T02:41:36;99174.98;;;11.97;100.00
70488;BME280;57976;48.174;16.370;2023-05-12T02:43:41;99177.73;;;11.98;100.00
70488;BME280;57976;48.174;16.370;2023-05-12T02:45:46;99177.13;;;11.99;100.00
70488;BME280;57976;48.174;16.370;2023-05-12T02:47:50;99176.91;;;11.97;100.00
70488;BME280;57976;48.174;16.370;2023-05-12T02:49:55;99176.88;;;11.99;100.00
70488;BME280;57976;48.174;16.370;2023-05-12T02:52:00;99176.02;;;12.02;100.00
70488;BME280;57976;48.174;16.370;2023-05-12T02:54:05;99176.38;;;12.06;100.00
70488;BME280;57976;48.174;16.370;2023-05-12T02:56:10;99179.34;;;12.06;100.00
70488;BME280;57976;48.174;16.370;2023-05-12T02:58:15;99178.58;;;12.02;100.00
70488;BME280;57976;48.174;16.370;2023-05-12T03:00:20;99180.38;;;12.03;100.00
70488;BME280;57976;48.174;16.370;2023-05-12T03:02:25;99182.70;;;12.04;100.00
70488;BME280;57976;48.174;16.370;2023-05-12T03:04:30;99182.91;;;12.03;100.00
70488;BME280;57976;48.174;16.370;2023-05-12T03:06:34;99184.54;;;12.01;100.00
70488;BME280;57976;48.174;16.370;2023-05-12T03:08:42;99182.86;;;12.00;100.00
70488;BME280;57976;48.174;16.370;2023-05-12T03:10:47;99184.73;;;11.95;100.00
70488;BME280;57976;48.174;16.370;2023-05-12T03:12:51;99182.70;;;11.89;100.00
70488;BME280;57976;48.174;16.370;2023-05-12T03:14:57;99183.70;;;11.86;100.00
70488;BME280;57976;48.174;16.370;2023-05-12T03:17:02;99183.30;;;11.85;100.00
70488;BME280;57976;48.174;16.370;2023-05-12T03:19:07;99186.27;;;11.85;100.00
70488;BME280;57976;48.174;16.370;2023-05-12T03:21:12;99190.36;;;11.87;100.00
70488;BME280;57976;48.174;16.370;2023-05-12T03:23:17;99186.23;;;11.83;100.00
70488;BME280;57976;48.174;16.370;2023-05-12T03:25:21;99186.48;;;11.84;100.00
70488;BME280;57976;48.174;16.370;2023-05-12T03:27:26;99180.39;;;11.86;100.00
70488;BME280;57976;48.174;16.370;2023-05-12T03:29:31;99180.72;;;11.84;100.00
70488;BME280;57976;48.174;16.370;2023-05-12T03:31:36;99177.45;;;11.81;100.00
70488;BME280;57976;48.174;16.370;2023-05-12T03:33:41;99178.38;;;11.74;100.00
70488;BME280;57976;48.174;16.370;2023-05-12T03:35:46;99175.59;;;11.73;100.00
70488;BME280;57976;48.174;16.370;2023-05-12T03:37:51;99182.13;;;11.72;100.00
70488;BME280;57976;48.174;16.370;2023-05-12T03:39:56;99183.66;;;11.70;100.00
70488;BME280;57976;48.174;16.370;2023-05-12T03:42:00;99182.60;;;11.68;100.00
70488;BME280;57976;48.174;16.370;2023-05-12T03:44:06;99179.34;;;11.70;100.00
70488;BME280;57976;48.174;16.370;2023-05-12T03:46:11;99182.02;;;11.66;100.00
70488;BME280;57976;48.174;16.370;2023-05-12T03:48:16;99182.30;;;11.64;100.00
70488;BME280;57976;48.174;16.370;2023-05-12T03:50:20;99184.44;;;11.63;100.00
70488;BME280;57976;48.174;16.370;2023-05-12T03:52:25;99185.80;;;11.62;100.00
70488;BME280;57976;48.174;16.370;2023-05-12T03:54:30;99183.21;;;11.59;100.00
70488;BME280;57976;48.174;16.370;2023-05-12T03:56:35;99186.34;;;11.54;100.00
70488;BME280;57976;48.174;16.370;2023-05-12T03:58:39;99184.31;;;11.49;100.00
70488;BME280;57976;48.174;16.370;2023-05-12T04:00:44;99184.81;;;11.46;100.00
70488;BME280;57976;48.174;16.370;2023-05-12T04:02:49;99184.07;;;11.46;100.00
70488;BME280;57976;48.174;16.370;2023-05-12T04:04:54;99187.41;;;11.45;100.00
70488;BME280;57976;48.174;16.370;2023-05-12T04:06:59;99186.38;;;11.45;100.00
70488;BME280;57976;48.174;16.370;2023-05-12T04:09:04;99192.08;;;11.45;100.00
70488;BME280;57976;48.174;16.370;2023-05-12T04:11:09;99190.25;;;11.44;100.00
70488;BME280;57976;48.174;16.370;2023-05-12T04:13:14;99191.13;;;11.45;100.00
70488;BME280;57976;48.174;16.370;2023-05-12T04:15:18;99194.74;;;11.46;100.00
70488;BME280;57976;48.174;16.370;2023-05-12T04:17:23;99197.79;;;11.45;100.00
70488;BME280;57976;48.174;16.370;2023-05-12T04:19:29;99197.34;;;11.45;100.00
70488;BME280;57976;48.174;16.370;2023-05-12T04:21:33;99199.80;;;11.44;100.00
70488;BME280;57976;48.174;16.370;2023-05-12T04:23:38;99204.27;;;11.45;100.00
70488;BME280;57976;48.174;16.370;2023-05-12T04:25:43;99204.27;;;11.46;100.00
70488;BME280;57976;48.174;16.370;2023-05-12T04:27:48;99207.63;;;11.44;100.00
70488;BME280;57976;48.174;16.370;2023-05-12T04:29:53;99213.88;;;11.43;100.00
70488;BME280;57976;48.174;16.370;2023-05-12T04:31:58;99212.08;;;11.43;100.00
70488;BME280;57976;48.174;16.370;2023-05-12T04:34:03;99217.36;;;11.42;100.00
70488;BME280;57976;48.174;16.370;2023-05-12T04:36:09;99213.92;;;11.39;100.00
70488;BME280;57976;48.174;16.370;2023-05-12T04:38:16;99215.07;;;11.37;100.00
70488;BME280;57976;48.174;16.370;2023-05-12T04:40:21;99218.48;;;11.37;100.00
70488;BME280;57976;48.174;16.370;2023-05-12T04:42:27;99221.16;;;11.36;100.00
70488;BME280;57976;48.174;16.370;2023-05-12T04:44:32;99226.25;;;11.36;100.00
70488;BME280;57976;48.174;16.370;2023-05-12T04:46:37;99226.37;;;11.36;100.00
70488;BME280;57976;48.174;16.370;2023-05-12T04:48:42;99223.58;;;11.36;100.00
70488;BME280;57976;48.174;16.370;2023-05-12T04:50:47;99223.91;;;11.33;100.00
70488;BME280;57976;48.174;16.370;2023-05-12T04:52:53;99225.19;;;11.33;100.00
70488;BME280;57976;48.174;16.370;2023-05-12T04:54:58;99221.91;;;11.32;100.00
70488;BME280;57976;48.174;16.370;2023-05-12T04:57:03;99223.21;;;11.32;100.00
70488;BME280;57976;48.174;16.370;2023-05-12T04:59:08;99224.48;;;11.30;100.00
70488;BME280;57976;48.174;16.370;2023-05-12T05:01:12;99228.85;;;11.27;100.00
70488;BME280;57976;48.174;16.370;2023-05-12T05:03:17;99226.21;;;11.27;100.00
70488;BME280;57976;48.174;16.370;2023-05-12T05:05:22;99225.48;;;11.27;100.00
70488;BME280;57976;48.174;16.370;2023-05-12T05:07:27;99226.74;;;11.31;100.00
70488;BME280;57976;48.174;16.370;2023-05-12T05:09:32;99224.61;;;11.33;100.00
70488;BME280;57976;48.174;16.370;2023-05-12T05:11:40;99224.20;;;11.31;100.00
70488;BME280;57976;48.174;16.370;2023-05-12T05:13:44;99223.42;;;11.28;100.00
70488;BME280;57976;48.174;16.370;2023-05-12T05:15:52;99225.31;;;11.26;100.00
70488;BME280;57976;48.174;16.370;2023-05-12T05:17:59;99224.34;;;11.24;100.00
70488;BME280;57976;48.174;16.370;2023-05-12T05:20:07;99223.19;;;11.23;100.00
70488;BME280;57976;48.174;16.370;2023-05-12T05:22:16;99225.27;;;11.22;100.00
70488;BME280;57976;48.174;16.370;2023-05-12T05:24:21;99231.56;;;11.24;100.00
70488;BME280;57976;48.174;16.370;2023-05-12T05:26:26;99227.37;;;11.26;100.00
70488;BME280;57976;48.174;16.370;2023-05-12T05:28:31;99227.73;;;11.29;100.00
70488;BME280;57976;48.174;16.370;2023-05-12T05:30:37;99223.18;;;11.26;100.00
70488;BME280;57976;48.174;16.370;2023-05-12T05:32:42;99225.15;;;11.26;100.00
70488;BME280;57976;48.174;16.370;2023-05-12T05:34:47;99224.61;;;11.27;100.00
70488;BME280;57976;48.174;16.370;2023-05-12T05:36:51;99227.25;;;11.27;100.00
70488;BME280;57976;48.174;16.370;2023-05-12T05:38:57;99224.75;;;11.27;100.00
70488;BME280;57976;48.174;16.370;2023-05-12T05:41:02;99228.89;;;11.27;100.00
70488;BME280;57976;48.174;16.370;2023-05-12T05:43:07;99231.79;;;11.30;100.00
70488;BME280;57976;48.174;16.370;2023-05-12T05:45:12;99234.42;;;11.32;100.00
70488;BME280;57976;48.174;16.370;2023-05-12T05:47:19;99231.01;;;11.31;100.00
70488;BME280;57976;48.174;16.370;2023-05-12T05:49:24;99233.75;;;11.31;100.00
70488;BME280;57976;48.174;16.370;2023-05-12T05:51:30;99229.98;;;11.33;100.00
70488;BME280;57976;48.174;16.370;2023-05-12T05:53:35;99228.17;;;11.36;100.00
70488;BME280;57976;48.174;16.370;2023-05-12T05:55:40;99230.55;;;11.37;100.00
70488;BME280;57976;48.174;16.370;2023-05-12T05:57:45;99228.20;;;11.37;100.00
70488;BME280;57976;48.174;16.370;2023-05-12T05:59:50;99228.42;;;11.36;100.00
70488;BME280;57976;48.174;16.370;2023-05-12T06:01:55;99229.36;;;11.34;100.00
70488;BME280;57976;48.174;16.370;2023-05-12T06:04:00;99230.31;;;11.32;100.00
70488;BME280;57976;48.174;16.370;2023-05-12T06:06:05;99235.08;;;11.30;100.00
70488;BME280;57976;48.174;16.370;2023-05-12T06:08:10;99238.36;;;11.27;100.00
70488;BME280;57976;48.174;16.370;2023-05-12T06:10:18;99236.97;;;11.28;100.00
70488;BME280;57976;48.174;16.370;2023-05-12T06:12:23;99244.60;;;11.26;100.00
70488;BME280;57976;48.174;16.370;2023-05-12T06:14:28;99247.19;;;11.25;100.00
70488;BME280;57976;48.174;16.370;2023-05-12T06:16:32;99254.36;;;11.24;100.00
70488;BME280;57976;48.174;16.370;2023-05-12T06:18:37;99254.90;;;11.23;100.00
70488;BME280;57976;48.174;16.370;2023-05-12T06:20:42;99255.52;;;11.22;100.00
70488;BME280;57976;48.174;16.370;2023-05-12T06:22:47;99258.89;;;11.21;100.00
70488;BME280;57976;48.174;16.370;2023-05-12T06:24:53;99258.06;;;11.20;100.00
70488;BME280;57976;48.174;16.370;2023-05-12T06:26:58;99257.40;;;11.21;100.00
70488;BME280;57976;48.174;16.370;2023-05-12T06:29:02;99259.01;;;11.21;100.00
70488;BME280;57976;48.174;16.370;2023-05-12T06:31:10;99256.66;;;11.21;100.00
70488;BME280;57976;48.174;16.370;2023-05-12T06:33:14;99259.16;;;11.24;100.00
70488;BME280;57976;48.174;16.370;2023-05-12T06:35:21;99259.87;;;11.28;100.00
70488;BME280;57976;48.174;16.370;2023-05-12T06:37:26;99262.64;;;11.31;100.00
70488;BME280;57976;48.174;16.370;2023-05-12T06:39:30;99264.07;;;11.35;100.00
70488;BME280;57976;48.174;16.370;2023-05-12T06:41:35;99261.07;;;11.37;100.00
70488;BME280;57976;48.174;16.370;2023-05-12T06:43:41;99263.13;;;11.39;100.00
70488;BME280;57976;48.174;16.370;2023-05-12T06:45:45;99261.63;;;11.35;100.00
70488;BME280;57976;48.174;16.370;2023-05-12T06:47:50;99262.97;;;11.32;100.00
70488;BME280;57976;48.174;16.370;2023-05-12T06:49:55;99259.86;;;11.32;100.00
70488;BME280;57976;48.174;16.370;2023-05-12T06:52:00;99262.27;;;11.34;100.00
70488;BME280;57976;48.174;16.370;2023-05-12T06:54:05;99264.61;;;11.36;100.00
70488;BME280;57976;48.174;16.370;2023-05-12T06:56:10;99262.63;;;11.37;100.00
70488;BME280;57976;48.174;16.370;2023-05-12T06:58:15;99264.04;;;11.39;100.00
70488;BME280;57976;48.174;16.370;2023-05-12T07:00:20;99260.05;;;11.38;100.00
70488;BME280;57976;48.174;16.370;2023-05-12T07:02:25;99266.86;;;11.38;100.00
70488;BME280;57976;48.174;16.370;2023-05-12T07:04:30;99266.36;;;11.37;100.00
70488;BME280;57976;48.174;16.370;2023-05-12T07:06:38;99266.29;;;11.38;100.00
70488;BME280;57976;48.174;16.370;2023-05-12T07:08:42;99262.79;;;11.40;100.00
70488;BME280;57976;48.174;16.370;2023-05-12T07:10:47;99273.59;;;11.41;100.00
70488;BME280;57976;48.174;16.370;2023-05-12T07:12:52;99273.91;;;11.41;100.00
70488;BME280;57976;48.174;16.370;2023-05-12T07:14:57;99271.58;;;11.39;100.00
70488;BME280;57976;48.174;16.370;2023-05-12T07:17:02;99268.27;;;11.39;100.00
70488;BME280;57976;48.174;16.370;2023-05-12T07:19:07;99266.70;;;11.43;100.00
70488;BME280;57976;48.174;16.370;2023-05-12T07:21:12;99260.13;;;11.45;100.00
70488;BME280;57976;48.174;16.370;2023-05-12T07:23:17;99260.07;;;11.47;100.00
70488;BME280;57976;48.174;16.370;2023-05-12T07:25:22;99258.23;;;11.50;100.00
70488;BME280;57976;48.174;16.370;2023-05-12T07:27:27;99258.27;;;11.52;100.00
70488;BME280;57976;48.174;16.370;2023-05-12T07:29:32;99259.27;;;11.54;100.00
70488;BME280;57976;48.174;16.370;2023-05-12T07:31:36;99262.73;;;11.53;100.00
70488;BME280;57976;48.174;16.370;2023-05-12T07:33:41;99265.19;;;11.54;100.00
70488;BME280;57976;48.174;16.370;2023-05-12T07:35:47;99265.11;;;11.53;100.00
70488;BME280;57976;48.174;16.370;2023-05-12T07:37:52;99268.36;;;11.54;100.00
70488;BME280;57976;48.174;16.370;2023-05-12T07:39:57;99270.29;;;11.55;100.00
70488;BME280;57976;48.174;16.370;2023-05-12T07:42:01;99266.79;;;11.58;100.00
70488;BME280;57976;48.174;16.370;2023-05-12T07:44:06;99265.47;;;11.57;100.00
70488;BME280;57976;48.174;16.370;2023-05-12T07:46:11;99269.45;;;11.58;100.00
70488;BME280;57976;48.174;16.370;2023-05-12T07:48:16;99272.08;;;11.59;100.00
70488;BME280;57976;48.174;16.370;2023-05-12T07:50:21;99273.05;;;11.64;100.00
70488;BME280;57976;48.174;16.370;2023-05-12T07:52:26;99277.63;;;11.67;100.00
70488;BME280;57976;48.174;16.370;2023-05-12T07:54:30;99277.27;;;11.68;100.00
70488;BME280;57976;48.174;16.370;2023-05-12T07:56:35;99282.35;;;11.68;100.00
70488;BME280;57976;48.174;16.370;2023-05-12T07:58:40;99276.41;;;11.69;100.00
70488;BME280;57976;48.174;16.370;2023-05-12T08:00:44;99285.59;;;11.70;100.00
70488;BME280;57976;48.174;16.370;2023-05-12T08:02:49;99288.91;;;11.74;100.00
70488;BME280;57976;48.174;16.370;2023-05-12T08:04:54;99289.06;;;11.78;100.00
70488;BME280;57976;48.174;16.370;2023-05-12T08:06:59;99293.11;;;11.85;100.00
70488;BME280;57976;48.174;16.370;2023-05-12T08:09:04;99291.70;;;11.89;100.00
70488;BME280;57976;48.174;16.370;2023-05-12T08:11:12;99294.13;;;11.92;100.00
70488;BME280;57976;48.174;16.370;2023-05-12T08:13:17;99291.58;;;11.92;100.00
70488;BME280;57976;48.174;16.370;2023-05-12T08:15:22;99298.06;;;11.93;100.00
70488;BME280;57976;48.174;16.370;2023-05-12T08:17:26;99299.79;;;11.93;100.00
70488;BME280;57976;48.174;16.370;2023-05-12T08:19:33;99299.58;;;11.93;100.00
70488;BME280;57976;48.174;16.370;2023-05-12T08:21:37;99299.52;;;11.98;100.00
70488;BME280;57976;48.174;16.370;2023-05-12T08:23:42;99299.52;;;12.02;100.00
70488;BME280;57976;48.174;16.370;2023-05-12T08:25:47;99299.67;;;12.03;100.00
70488;BME280;57976;48.174;16.370;2023-05-12T08:27:52;99300.91;;;12.02;100.00
70488;BME280;57976;48.174;16.370;2023-05-12T08:29:57;99299.45;;;12.01;100.00
70488;BME280;57976;48.174;16.370;2023-05-12T08:32:02;99299.52;;;12.00;100.00
70488;BME280;57976;48.174;16.370;2023-05-12T08:34:08;99296.55;;;12.02;100.00
70488;BME280;57976;48.174;16.370;2023-05-12T08:36:14;99297.98;;;12.05;100.00
70488;BME280;57976;48.174;16.370;2023-05-12T08:38:19;99298.59;;;12.08;100.00
70488;BME280;57976;48.174;16.370;2023-05-12T08:40:25;99299.11;;;12.11;100.00
70488;BME280;57976;48.174;16.370;2023-05-12T08:42:37;99301.73;;;12.14;100.00
70488;BME280;57976;48.174;16.370;2023-05-12T08:44:45;99295.90;;;12.21;100.00
70488;BME280;57976;48.174;16.370;2023-05-12T08:46:51;99300.33;;;12.25;100.00
70488;BME280;57976;48.174;16.370;2023-05-12T08:48:57;99299.92;;;12.23;100.00
70488;BME280;57976;48.174;16.370;2023-05-12T08:51:03;99303.81;;;12.17;100.00
70488;BME280;57976;48.174;16.370;2023-05-12T08:53:10;99300.70;;;12.13;100.00
70488;BME280;57976;48.174;16.370;2023-05-12T08:55:18;99297.63;;;12.12;100.00
70488;BME280;57976;48.174;16.370;2023-05-12T08:57:24;99301.21;;;12.07;100.00
70488;BME280;57976;48.174;16.370;2023-05-12T08:59:32;99301.84;;;12.04;100.00
70488;BME280;57976;48.174;16.370;2023-05-12T09:01:38;99307.80;;;12.02;100.00
70488;BME280;57976;48.174;16.370;2023-05-12T09:03:43;99313.02;;;12.02;100.00
70488;BME280;57976;48.174;16.370;2023-05-12T09:05:48;99313.98;;;12.00;100.00
70488;BME280;57976;48.174;16.370;2023-05-12T09:07:54;99316.29;;;11.93;100.00
70488;BME280;57976;48.174;16.370;2023-05-12T09:10:02;99319.64;;;11.86;100.00
70488;BME280;57976;48.174;16.370;2023-05-12T09:12:14;99326.42;;;11.83;100.00
70488;BME280;57976;48.174;16.370;2023-05-12T09:14:23;99327.84;;;11.80;100.00
70488;BME280;57976;48.174;16.370;2023-05-12T09:16:30;99329.80;;;11.77;100.00
70488;BME280;57976;48.174;16.370;2023-05-12T09:18:49;99334.45;;;11.75;100.00
70488;BME280;57976;48.174;16.370;2023-05-12T09:20:54;99332.71;;;11.77;100.00
70488;BME280;57976;48.174;16.370;2023-05-12T09:22:59;99334.84;;;11.82;100.00
70488;BME280;57976;48.174;16.370;2023-05-12T09:25:19;99336.19;;;11.88;100.00
70488;BME280;57976;48.174;16.370;2023-05-12T09:27:28;99336.54;;;11.92;100.00
70488;BME280;57976;48.174;16.370;2023-05-12T09:29:33;99336.53;;;12.00;100.00
70488;BME280;57976;48.174;16.370;2023-05-12T09:31:52;99338.92;;;12.06;100.00
70488;BME280;57976;48.174;16.370;2023-05-12T09:33:58;99334.64;;;12.10;100.00
70488;BME280;57976;48.174;16.370;2023-05-12T09:36:03;99335.07;;;12.20;100.00
70488;BME280;57976;48.174;16.370;2023-05-12T09:38:09;99335.99;;;12.23;100.00
70488;BME280;57976;48.174;16.370;2023-05-12T09:40:16;99337.51;;;12.25;100.00
70488;BME280;57976;48.174;16.370;2023-05-12T09:42:21;99337.23;;;12.25;100.00
70488;BME280;57976;48.174;16.370;2023-05-12T09:44:27;99339.95;;;12.22;100.00
70488;BME280;57976;48.174;16.370;2023-05-12T09:46:33;99341.85;;;12.16;100.00
70488;BME280;57976;48.174;16.370;2023-05-12T09:48:38;99341.23;;;12.06;100.00
70488;BME280;57976;48.174;16.370;2023-05-12T09:50:48;99337.61;;;11.94;100.00
70488;BME280;57976;48.174;16.370;2023-05-12T09:52:53;99340.20;;;11.87;100.00
70488;BME280;57976;48.174;16.370;2023-05-12T09:55:04;99341.90;;;11.80;100.00
70488;BME280;57976;48.174;16.370;2023-05-12T09:57:11;99343.23;;;11.79;100.00
70488;BME280;57976;48.174;16.370;2023-05-12T09:59:20;99342.37;;;11.77;100.00
70488;BME280;57976;48.174;16.370;2023-05-12T10:01:27;99344.63;;;11.78;100.00
70488;BME280;57976;48.174;16.370;2023-05-12T10:03:33;99341.41;;;11.80;100.00
70488;BME280;57976;48.174;16.370;2023-05-12T10:05:47;99344.09;;;11.83;100.00
70488;BME280;57976;48.174;16.370;2023-05-12T10:07:54;99342.67;;;11.84;100.00
70488;BME280;57976;48.174;16.370;2023-05-12T10:10:02;99346.70;;;11.84;100.00
70488;BME280;57976;48.174;16.370;2023-05-12T10:12:12;99345.47;;;11.84;100.00
70488;BME280;57976;48.174;16.370;2023-05-12T10:14:18;99346.09;;;11.83;100.00
70488;BME280;57976;48.174;16.370;2023-05-12T10:16:22;99344.91;;;11.81;100.00
70488;BME280;57976;48.174;16.370;2023-05-12T10:18:28;99342.52;;;11.80;100.00
70488;BME280;57976;48.174;16.370;2023-05-12T10:20:33;99348.42;;;11.82;100.00
70488;BME280;57976;48.174;16.370;2023-05-12T10:22:40;99346.37;;;11.82;100.00
70488;BME280;57976;48.174;16.370;2023-05-12T10:24:45;99346.58;;;11.87;100.00
70488;BME280;57976;48.174;16.370;2023-05-12T10:26:53;99345.26;;;11.90;100.00
70488;BME280;57976;48.174;16.370;2023-05-12T10:28:58;99346.32;;;11.94;100.00
70488;BME280;57976;48.174;16.370;2023-05-12T10:31:08;99343.66;;;12.03;100.00
70488;BME280;57976;48.174;16.370;2023-05-12T10:33:13;99345.20;;;12.12;100.00
70488;BME280;57976;48.174;16.370;2023-05-12T10:35:18;99344.77;;;12.18;100.00
70488;BME280;57976;48.174;16.370;2023-05-12T10:37:23;99347.54;;;12.26;100.00
70488;BME280;57976;48.174;16.370;2023-05-12T10:39:32;99350.02;;;12.32;100.00
70488;BME280;57976;48.174;16.370;2023-05-12T10:41:37;99352.72;;;12.38;100.00
70488;BME280;57976;48.174;16.370;2023-05-12T10:43:43;99348.98;;;12.42;100.00
70488;BME280;57976;48.174;16.370;2023-05-12T10:46:06;99351.84;;;12.49;100.00
70488;BME280;57976;48.174;16.370;2023-05-12T10:48:15;99357.20;;;12.55;100.00
70488;BME280;57976;48.174;16.370;2023-05-12T10:50:28;99354.72;;;12.57;100.00